Aérodrome :
LOGIN :

S'inscrire | Disclaimer

   EN    FR    IT 

 










Légende :    VFR   VFR Marginal   IFR   IFR Intensif   IFR Très Intensif
Visi : 
Plafond : 
>= 8 km
>= 3000ft
5 à 8 km
1000 à 3000 ft
1500m à 5 km
500 à 1000 ft
800 à 1500m
200 à 500 ft
< 800m
< 200 ft
Symboles :   Orages  Brouillard  Fortes neiges  Fortes précipitations  Vent > 20 kt
SIGMETs :   Divers  Orages  Givrage  Turbulence  Onde Orograph.  Cendres Volcan.







- Altitude de l'aérodrome : 309 ft
- Code IATA : FNI
- Voir les cartes d'approche


LFTW - Nîmes Garons

DERNIER METAR :
  • 221600Z AUTO 15008KT 110V170 9999 SCT015 BKN020 OVC043 14/11 Q1016 TEMPO RA OVC005

METARs EXPIRÉS :
  • 221530Z AUTO 15011KT 120V180 9999 FEW016 BKN044 15/11 Q1016 TEMPO RA OVC005
  • 221500Z AUTO 15012KT 9999 BKN015 BKN045 15/12 Q1016 TEMPO RA OVC005
  • 221430Z AUTO 15012KT 9999 OVC015 15/11 Q1016 TEMPO RA OVC005
  • 221400Z AUTO 13008KT 9999 OVC014 15/11 Q1016 TEMPO RA BKN015
  • 221330Z AUTO 10003KT 060V120 9999 OVC013 14/08 Q1017 TEMPO RA BKN015

TAF TAF LFTW
Valide du 22 à 15h jusqu'au 23 à 15h UTC


221400Z 2215/2315 10003KT 9999 OVC013
BECMG 2215/2217 15010KT BKN015
TEMPO 2215/2309 RA OVC005
Pas de NOTAMs connus pour ce terrain.



MET'MAP, la Météo Aéronautique d'un coup d'oeil ! - Copyright ORBIFLY Décembre 2007 - Disclaimer

ORBIFLY MET'MAP TEAM :

Programmation & Développement : Alexandra Zaïnal
Conception & Développement : Baudouin d'Aumeries
Co-Programmation & Développement : Marc-Olivier Méhu
Soutien technique & logistique : Manuel Goepfert

Contact : metmap@orbifly.com




SOURCES & CREDITS :

   NOAA